Aviation Digital Data Service (ADDS)

Output produced by METARs form (1714 UTC 27 July 2016)
found at http://www.aviationweather.gov/adds/metars/
 
KSAV 271653Z 25010KT 10SM SCT040 SCT250 34/22 A3006 RMK AO2 SLP180 T03390222